createdAt,value
2023-01-01T00:00:49.026Z,242.38
2023-01-01T00:03:16.343Z,244.18
2023-01-01T00:05:43.492Z,267.67
2023-01-01T00:08:10.714Z,228.13
2023-01-01T00:10:38.448Z,206.70
2023-01-01T00:13:05.587Z,247.40
2023-01-01T00:15:33.600Z,212.38
2023-01-01T00:18:01.340Z,205.90
2023-01-01T00:20:34.737Z,200.50
2023-01-01T00:23:02.610Z,192.73
2023-01-01T00:25:30.453Z,178.77
2023-01-01T00:27:57.589Z,181.15
2023-01-01T00:30:25.359Z,176.32
2023-01-01T00:32:54.864Z,179.50
2023-01-01T00:35:24.947Z,199.38
2023-01-01T00:37:52.373Z,207.10
2023-01-01T00:40:19.516Z,236.48
2023-01-01T00:42:46.727Z,231.27
2023-01-01T00:45:20.589Z,237.52
2023-01-01T00:47:49.535Z,244.45
2023-01-01T00:50:16.849Z,243.05
2023-01-01T00:52:44.613Z,242.68
2023-01-01T00:55:12.317Z,243.45
2023-01-01T00:57:39.467Z,243.98
2023-01-01T01:00:08.530Z,233.07
2023-01-01T01:02:35.907Z,208.85
2023-01-01T01:05:05.012Z,214.60
2023-01-01T01:07:39.039Z,226.80
2023-01-01T01:10:07.196Z,218.63
2023-01-01T01:12:35.961Z,209.48
2023-01-01T01:15:04.649Z,207.80
2023-01-01T01:17:32.123Z,185.55
2023-01-01T01:19:59.466Z,176.45
2023-01-01T01:22:28.994Z,172.50
2023-01-01T01:24:56.877Z,159.68
2023-01-01T01:27:24.475Z,161.82
2023-01-01T01:29:51.701Z,163.90
2023-01-01T01:32:19.254Z,171.52
2023-01-01T01:34:47.115Z,163.23
2023-01-01T01:37:14.343Z,162.30
2023-01-01T01:39:41.519Z,150.63
2023-01-01T01:42:16.590Z,147.88
2023-01-01T01:44:49.418Z,132.55
2023-01-01T01:47:31.506Z,137.20
2023-01-01T01:50:29.932Z,104.90
2023-01-01T01:53:24.273Z,104.03
2023-01-01T01:55:56.248Z,139.17
2023-01-01T01:58:25.250Z,145.85
2023-01-01T02:00:53.590Z,160.02
2023-01-01T02:03:37.602Z,156.00
2023-01-01T02:06:05.320Z,151.90
2023-01-01T02:08:35.500Z,161.95
2023-01-01T02:11:03.226Z,161.05
2023-01-01T02:13:31.060Z,160.48
2023-01-01T02:16:14.036Z,161.18
2023-01-01T02:18:53.179Z,144.23
2023-01-01T02:21:30.483Z,146.60
2023-01-01T02:24:15.845Z,138.93
2023-01-01T02:26:43.330Z,127.22
2023-01-01T02:29:33.224Z,136.98
2023-01-01T02:32:14.526Z,143.50
2023-01-01T02:34:49.734Z,123.13
2023-01-01T02:37:19.180Z,116.22
2023-01-01T02:39:55.637Z,131.10
2023-01-01T02:42:27.886Z,123.50
2023-01-01T02:44:58.512Z,127.43
2023-01-01T02:47:25.659Z,140.45
2023-01-01T02:50:12.347Z,134.90
2023-01-01T02:53:00.241Z,132.95
2023-01-01T02:56:02.417Z,131.20
2023-01-01T02:59:04.500Z,124.53
2023-01-01T03:01:37.593Z,134.45
2023-01-01T03:04:27.433Z,134.48
2023-01-01T03:06:57.309Z,104.78
2023-01-01T03:09:38.955Z,143.45
2023-01-01T03:12:43.576Z,143.95
2023-01-01T03:15:33.529Z,142.05
2023-01-01T03:18:13.656Z,138.55
2023-01-01T03:20:45.877Z,137.43
2023-01-01T03:23:18.631Z,137.07
2023-01-01T03:25:57.964Z,134.63
2023-01-01T03:28:35.107Z,131.23
2023-01-01T03:31:03.240Z,134.65
2023-01-01T03:33:36.204Z,138.32
2023-01-01T03:36:06.333Z,81.53
2023-01-01T03:38:49.391Z,76.03
2023-01-01T03:41:58.867Z,114.43
2023-01-01T03:44:42.124Z,116.78
2023-01-01T03:47:09.480Z,98.90
2023-01-01T03:49:37.078Z,105.90
2023-01-01T03:52:41.067Z,123.15
2023-01-01T03:55:25.693Z,128.55
2023-01-01T03:58:01.450Z,123.25
2023-01-01T04:00:33.808Z,120.85
2023-01-01T04:03:04.941Z,127.70
2023-01-01T04:05:36.335Z,125.22
2023-01-01T04:08:04.739Z,125.82
2023-01-01T04:10:34.737Z,124.90
2023-01-01T04:13:06.038Z,125.47
2023-01-01T04:15:34.027Z,119.82
2023-01-01T04:18:01.170Z,124.00
2023-01-01T04:20:28.600Z,114.68
2023-01-01T04:23:02.831Z,101.57
2023-01-01T04:25:30.723Z,98.50
2023-01-01T04:28:03.766Z,101.88
2023-01-01T04:30:31.482Z,72.45
2023-01-01T04:32:58.692Z,74.95
2023-01-01T04:35:25.906Z,81.28
2023-01-01T04:37:53.094Z,90.22
2023-01-01T04:40:20.238Z,88.80
2023-01-01T04:42:47.431Z,85.07
2023-01-01T04:45:15.584Z,86.72
2023-01-01T04:47:43.092Z,106.82
2023-01-01T04:50:11.336Z,114.00
2023-01-01T04:52:38.521Z,113.90
2023-01-01T04:55:06.155Z,110.28
2023-01-01T04:57:33.319Z,106.55
2023-01-01T05:00:00.431Z,102.85
2023-01-01T05:02:27.879Z,100.82
2023-01-01T05:04:55.103Z,93.07
2023-01-01T05:07:22.291Z,92.40
2023-01-01T05:09:49.507Z,87.40
2023-01-01T05:12:16.729Z,86.30
2023-01-01T05:14:43.926Z,93.63
2023-01-01T05:17:11.067Z,95.10
2023-01-01T05:19:38.293Z,85.25
2023-01-01T05:22:10.403Z,90.68
2023-01-01T05:24:38.234Z,86.07
2023-01-01T05:27:05.463Z,85.88
2023-01-01T05:29:32.592Z,87.38
2023-01-01T05:31:59.816Z,89.70
2023-01-01T05:36:54.886Z,90.60
2023-01-01T05:39:23.057Z,96.38
2023-01-01T05:41:50.195Z,91.25
2023-01-01T05:44:19.616Z,94.18
2023-01-01T05:46:46.946Z,99.28
2023-01-01T05:49:14.193Z,104.93
2023-01-01T05:51:44.381Z,106.50
2023-01-01T05:54:20.927Z,103.45
2023-01-01T05:56:48.012Z,102.30
2023-01-01T05:59:15.218Z,104.43
2023-01-01T06:01:45.756Z,97.75
2023-01-01T06:04:13.768Z,108.53
2023-01-01T06:06:41.063Z,103.88
2023-01-01T06:09:08.192Z,96.07
2023-01-01T06:11:35.393Z,97.97
2023-01-01T06:14:03.070Z,94.68
2023-01-01T06:16:31.465Z,102.80
2023-01-01T06:18:59.506Z,103.57
2023-01-01T06:21:28.482Z,102.57
2023-01-01T06:23:57.547Z,98.50
2023-01-01T06:26:27.945Z,89.97
2023-01-01T06:28:56.492Z,91.00
2023-01-01T06:31:24.659Z,83.20
2023-01-01T06:33:52.014Z,82.03
2023-01-01T06:36:21.496Z,87.70
2023-01-01T06:38:51.975Z,83.82
2023-01-01T06:41:24.954Z,84.93
2023-01-01T06:43:52.756Z,77.55
2023-01-01T06:46:24.613Z,70.43
2023-01-01T06:48:55.546Z,67.60
2023-01-01T06:51:25.520Z,61.40
2023-01-01T06:53:53.449Z,60.08
2023-01-01T06:56:21.299Z,75.20
2023-01-01T06:58:48.565Z,70.93
2023-01-01T07:01:19.680Z,62.90
2023-01-01T07:04:01.511Z,60.15
2023-01-01T07:06:30.242Z,68.95
2023-01-01T07:08:57.598Z,76.63
2023-01-01T07:11:25.584Z,87.03
2023-01-01T07:13:52.911Z,84.20
2023-01-01T07:16:21.307Z,79.45
2023-01-01T07:18:50.639Z,78.68
2023-01-01T07:21:44.700Z,74.78
2023-01-01T07:24:16.318Z,68.07
2023-01-01T07:26:43.821Z,67.85
2023-01-01T07:29:11.321Z,64.38
2023-01-01T07:31:40.663Z,63.08
2023-01-01T07:34:11.372Z,59.92
2023-01-01T07:36:38.585Z,54.50
2023-01-01T07:39:05.740Z,53.85
2023-01-01T07:41:33.010Z,56.30
2023-01-01T07:44:00.433Z,51.75
2023-01-01T07:46:27.800Z,56.95
2023-01-01T07:48:55.039Z,48.42
2023-01-01T07:51:22.321Z,35.15
2023-01-01T07:53:49.494Z,36.25
2023-01-01T07:56:16.772Z,47.78
2023-01-01T07:58:44.254Z,31.38
2023-01-01T08:01:13.679Z,28.98
2023-01-01T08:03:41.384Z,28.08
2023-01-01T08:06:13.066Z,31.08
2023-01-01T08:08:41.322Z,45.45
2023-01-01T08:11:08.770Z,40.95
2023-01-01T08:13:35.952Z,27.80
2023-01-01T08:16:03.460Z,33.08
2023-01-01T08:18:30.665Z,26.15
2023-01-01T08:20:57.907Z,23.77
2023-01-01T08:23:25.230Z,22.98
2023-01-01T08:25:52.445Z,15.73
2023-01-01T08:28:19.574Z,18.48
2023-01-01T08:30:46.707Z,14.75
2023-01-01T08:33:13.811Z,19.90
2023-01-01T08:35:44.153Z,28.50
2023-01-01T08:38:13.981Z,52.30
2023-01-01T08:40:41.378Z,56.35
2023-01-01T08:43:08.519Z,55.03
2023-01-01T08:45:35.806Z,52.88
2023-01-01T08:48:02.948Z,51.42
2023-01-01T08:50:30.199Z,44.75
2023-01-01T08:52:59.275Z,47.75
2023-01-01T08:55:26.508Z,49.50
2023-01-01T08:57:53.720Z,51.55
2023-01-01T09:00:21.569Z,51.00
2023-01-01T09:02:48.878Z,50.17
2023-01-01T09:05:16.172Z,40.63
2023-01-01T09:07:43.392Z,35.15
2023-01-01T09:10:10.539Z,38.88
2023-01-01T09:12:37.827Z,38.40
2023-01-01T09:15:05.457Z,41.88
2023-01-01T09:17:32.621Z,39.42
2023-01-01T09:19:59.695Z,42.25
2023-01-01T09:22:26.839Z,42.60
2023-01-01T09:24:54.115Z,41.97
2023-01-01T09:27:21.300Z,45.17
2023-01-01T09:29:48.499Z,46.65
2023-01-01T09:32:15.753Z,47.20
2023-01-01T09:34:47.316Z,46.90
2023-01-01T09:37:17.701Z,48.10
2023-01-01T09:39:44.863Z,49.10
2023-01-01T09:42:23.323Z,47.45
2023-01-01T09:45:21.799Z,48.00
2023-01-01T09:48:07.751Z,45.95
2023-01-01T09:50:42.416Z,46.10
2023-01-01T09:53:32.988Z,46.50
2023-01-01T09:56:02.660Z,38.13
2023-01-01T09:58:36.246Z,31.17
2023-01-01T10:01:40.955Z,23.83
2023-01-01T10:04:32.409Z,19.87
2023-01-01T10:07:11.592Z,18.98
2023-01-01T10:09:44.621Z,20.20
2023-01-01T10:12:39.634Z,20.33
2023-01-01T10:15:20.169Z,22.23
2023-01-01T10:17:51.164Z,27.95
2023-01-01T10:20:26.831Z,30.70
2023-01-01T10:23:02.903Z,30.88
2023-01-01T10:25:32.995Z,31.70
2023-01-01T10:28:07.790Z,31.50
2023-01-01T10:30:34.963Z,28.70
2023-01-01T10:33:02.363Z,29.35
2023-01-01T10:35:36.675Z,27.73
2023-01-01T10:38:06.068Z,26.58
2023-01-01T10:40:34.531Z,25.65
2023-01-01T10:43:04.055Z,24.88
2023-01-01T10:45:34.547Z,24.23
2023-01-01T10:48:13.684Z,21.83
2023-01-01T10:51:04.869Z,18.27
2023-01-01T10:53:51.305Z,19.17
2023-01-01T10:56:20.541Z,20.98
2023-01-01T10:58:56.680Z,22.33
2023-01-01T11:01:34.352Z,20.45
2023-01-01T11:04:21.340Z,22.13
2023-01-01T11:06:48.717Z,21.17
2023-01-01T11:09:27.115Z,20.10
2023-01-01T11:12:09.454Z,19.23
2023-01-01T11:14:43.527Z,19.10
2023-01-01T11:17:11.103Z,18.65
2023-01-01T11:19:45.650Z,18.20
2023-01-01T11:22:36.006Z,19.83
2023-01-01T11:25:05.232Z,18.60
2023-01-01T11:27:32.356Z,19.02
2023-01-01T11:30:23.120Z,17.63
2023-01-01T11:32:55.801Z,17.00
2023-01-01T11:35:26.022Z,14.85
2023-01-01T11:37:55.204Z,14.43
2023-01-01T11:40:36.042Z,11.40
2023-01-01T11:43:07.253Z,11.70
2023-01-01T11:45:40.796Z,12.70
2023-01-01T11:48:27.382Z,10.85
2023-01-01T11:50:57.465Z,10.00
2023-01-01T11:53:27.350Z,8.77
2023-01-01T11:56:09.456Z,9.73
2023-01-01T11:58:48.801Z,10.23
2023-01-01T12:01:30.632Z,11.90
2023-01-01T12:04:16.902Z,12.95
2023-01-01T12:07:16.313Z,12.10
2023-01-01T12:10:22.627Z,12.73
2023-01-01T12:13:03.202Z,12.05
2023-01-01T12:15:44.554Z,12.43
2023-01-01T12:18:24.065Z,13.27
2023-01-01T12:20:56.698Z,12.73
2023-01-01T12:23:23.968Z,12.32
2023-01-01T12:26:00.208Z,12.15
2023-01-01T12:28:33.427Z,13.20
2023-01-01T12:31:06.547Z,11.85
2023-01-01T12:33:36.497Z,12.38
2023-01-01T12:36:24.212Z,12.02
2023-01-01T12:39:42.335Z,11.50
2023-01-01T12:42:38.155Z,10.95
2023-01-01T12:45:31.410Z,11.80
2023-01-01T12:48:17.077Z,10.80
2023-01-01T12:51:04.995Z,10.45
2023-01-01T12:53:55.397Z,9.40
2023-01-01T12:57:15.845Z,9.00
2023-01-01T12:59:48.310Z,8.57
2023-01-01T13:02:25.282Z,9.02
2023-01-01T13:04:57.214Z,9.20
2023-01-01T13:07:34.823Z,8.88
2023-01-01T13:10:13.225Z,9.13
2023-01-01T13:12:40.908Z,8.57
2023-01-01T13:15:38.833Z,7.70
2023-01-01T13:18:07.987Z,7.03
2023-01-01T13:20:41.191Z,6.32
2023-01-01T13:23:34.839Z,5.65
2023-01-01T13:26:26.019Z,5.85
2023-01-01T13:28:59.073Z,6.20
2023-01-01T13:31:41.545Z,6.13
2023-01-01T13:34:30.402Z,6.28
2023-01-01T13:37:17.473Z,6.10
2023-01-01T13:39:58.353Z,7.03
2023-01-01T13:43:04.751Z,10.40
2023-01-01T13:46:11.697Z,11.38
2023-01-01T13:49:24.042Z,10.40
2023-01-01T13:52:43.235Z,11.02
2023-01-01T13:55:35.495Z,12.15
2023-01-01T13:58:18.828Z,12.25
2023-01-01T14:00:58.130Z,12.75
2023-01-01T14:03:27.872Z,13.35
2023-01-01T14:06:00.176Z,13.32
2023-01-01T14:08:33.498Z,13.23
2023-01-01T14:11:02.464Z,13.85
2023-01-01T14:13:32.677Z,14.57
2023-01-01T14:16:08.278Z,13.65
2023-01-01T14:18:45.376Z,14.88
2023-01-01T14:21:21.944Z,14.50
2023-01-01T14:24:02.083Z,15.45
2023-01-01T14:26:31.251Z,16.75
2023-01-01T14:29:00.896Z,15.27
2023-01-01T14:31:35.647Z,15.98
2023-01-01T14:34:23.724Z,16.02
2023-01-01T14:36:56.804Z,17.15
2023-01-01T14:39:29.600Z,16.48
2023-01-01T14:42:02.787Z,20.00
2023-01-01T14:44:38.890Z,20.67
2023-01-01T14:47:16.025Z,23.00
2023-01-01T14:49:43.322Z,22.85
2023-01-01T14:52:21.998Z,25.67
2023-01-01T14:54:49.663Z,25.42
2023-01-01T14:57:25.988Z,27.55
2023-01-01T14:59:57.145Z,27.75
2023-01-01T15:02:30.866Z,30.00
2023-01-01T15:04:59.266Z,30.02
2023-01-01T15:07:31.746Z,30.58
2023-01-01T15:10:01.928Z,30.58
2023-01-01T15:12:30.506Z,33.15
2023-01-01T15:14:58.624Z,34.42
2023-01-01T15:17:27.403Z,34.10
2023-01-01T15:20:06.102Z,35.53
2023-01-01T15:22:35.478Z,31.13
2023-01-01T15:25:03.910Z,34.53
2023-01-01T15:27:37.166Z,30.10
2023-01-01T15:30:13.292Z,33.25
2023-01-01T15:32:41.419Z,35.00
2023-01-01T15:35:32.048Z,34.30
2023-01-01T15:38:24.285Z,37.03
2023-01-01T15:40:53.813Z,38.28
2023-01-01T15:43:25.836Z,39.13
2023-01-01T15:45:56.795Z,41.55
2023-01-01T15:48:35.481Z,39.72
2023-01-01T15:51:11.181Z,39.25
2023-01-01T15:53:49.485Z,51.20
2023-01-01T15:56:17.802Z,45.55
2023-01-01T15:59:03.749Z,47.22
2023-01-01T16:01:35.308Z,45.00
2023-01-01T16:04:14.192Z,44.28
2023-01-01T16:06:49.470Z,46.10
2023-01-01T16:09:18.180Z,50.28
2023-01-01T16:11:46.128Z,47.50
2023-01-01T16:14:13.357Z,46.63
2023-01-01T16:16:43.621Z,52.00
2023-01-01T16:19:17.545Z,51.60
2023-01-01T16:21:44.881Z,50.70
2023-01-01T16:24:14.638Z,50.33
2023-01-01T16:26:43.071Z,53.50
2023-01-01T16:29:10.521Z,58.00
2023-01-01T16:31:40.042Z,54.47
2023-01-01T16:34:07.556Z,53.80
2023-01-01T16:36:34.845Z,59.88
2023-01-01T16:39:02.116Z,59.17
2023-01-01T16:41:30.649Z,55.42
2023-01-01T16:43:58.172Z,52.25
2023-01-01T16:46:28.143Z,53.50
2023-01-01T16:48:55.454Z,52.63
2023-01-01T16:51:28.858Z,52.80
2023-01-01T16:53:57.755Z,60.22
2023-01-01T16:56:25.027Z,56.85
2023-01-01T16:59:02.146Z,54.42
2023-01-01T17:01:30.671Z,54.05
2023-01-01T17:03:58.163Z,54.03
2023-01-01T17:06:25.351Z,51.00
2023-01-01T17:08:52.696Z,52.22
2023-01-01T17:11:20.919Z,54.92
2023-01-01T17:13:48.605Z,61.10
2023-01-01T17:16:23.548Z,59.50
2023-01-01T17:19:14.538Z,57.78
2023-01-01T17:21:42.619Z,57.72
2023-01-01T17:24:10.128Z,57.60
2023-01-01T17:26:37.382Z,57.47
2023-01-01T17:29:07.047Z,57.60
2023-01-01T17:31:34.500Z,71.53
2023-01-01T17:34:02.578Z,71.97
2023-01-01T17:36:30.224Z,70.68
2023-01-01T17:38:57.860Z,72.40
2023-01-01T17:41:25.652Z,75.35
2023-01-01T17:43:54.697Z,70.78
2023-01-01T17:46:25.118Z,62.75
2023-01-01T17:48:53.391Z,62.00
2023-01-01T17:51:21.742Z,61.88
2023-01-01T17:53:49.901Z,63.10
2023-01-01T17:56:19.526Z,70.43
2023-01-01T17:58:49.010Z,64.13
2023-01-01T18:01:22.473Z,71.88
2023-01-01T18:03:52.136Z,96.15
2023-01-01T18:06:19.592Z,95.50
2023-01-01T18:08:47.785Z,93.78
2023-01-01T18:11:15.205Z,72.60
2023-01-01T18:13:42.525Z,75.82
2023-01-01T18:16:12.378Z,75.07
2023-01-01T18:18:40.912Z,71.22
2023-01-01T18:21:10.534Z,70.97
2023-01-01T18:23:39.970Z,72.78
2023-01-01T18:26:10.412Z,71.32
2023-01-01T18:28:38.527Z,71.18
2023-01-01T18:31:10.886Z,69.15
2023-01-01T18:33:38.624Z,66.63
2023-01-01T18:36:18.576Z,63.03
2023-01-01T18:39:22.364Z,56.28
2023-01-01T18:41:49.449Z,58.08
2023-01-01T18:44:23.119Z,61.38
2023-01-01T18:47:13.869Z,64.73
2023-01-01T18:49:48.943Z,62.72
2023-01-01T18:52:26.577Z,64.93
2023-01-01T18:55:19.596Z,61.85
2023-01-01T18:57:56.737Z,75.55
2023-01-01T19:00:31.589Z,72.38
2023-01-01T19:03:04.170Z,70.60
2023-01-01T19:05:34.710Z,71.82
2023-01-01T19:08:08.029Z,79.45
2023-01-01T19:10:37.643Z,83.10
2023-01-01T19:13:38.077Z,79.00
2023-01-01T19:16:30.914Z,74.03
2023-01-01T19:19:15.018Z,76.05
2023-01-01T19:21:47.916Z,73.67
2023-01-01T19:24:27.946Z,73.65
2023-01-01T19:27:18.150Z,74.57
2023-01-01T19:29:48.187Z,67.60
2023-01-01T19:32:16.308Z,71.25
2023-01-01T19:34:43.915Z,66.93
2023-01-01T19:37:12.009Z,60.80
2023-01-01T19:39:39.787Z,62.08
2023-01-01T19:42:07.632Z,65.50
2023-01-01T19:44:38.644Z,68.78
2023-01-01T19:47:09.387Z,66.07
2023-01-01T19:49:37.201Z,64.85
2023-01-01T19:52:05.212Z,65.55
2023-01-01T19:54:32.452Z,60.78
2023-01-01T19:57:00.246Z,65.32
2023-01-01T19:59:32.953Z,59.95
2023-01-01T20:02:43.325Z,61.10
2023-01-01T20:04:51.163Z,56.80
2023-01-01T20:07:21.276Z,54.97
2023-01-01T20:09:49.316Z,58.05
2023-01-01T20:12:17.309Z,57.13
2023-01-01T20:14:45.378Z,51.40
2023-01-01T20:17:13.437Z,54.63
2023-01-01T20:19:45.007Z,54.63
2023-01-01T20:22:14.526Z,53.10
2023-01-01T20:24:43.043Z,52.67
2023-01-01T20:27:29.986Z,56.70
2023-01-01T20:29:58.445Z,56.42
2023-01-01T20:32:29.697Z,56.47
2023-01-01T20:34:58.134Z,51.53
2023-01-01T20:37:37.889Z,53.28
2023-01-01T20:40:12.472Z,52.58
2023-01-01T20:42:42.414Z,51.58
2023-01-01T20:45:10.905Z,52.55
2023-01-01T20:47:39.622Z,55.15
2023-01-01T20:50:12.011Z,50.95
2023-01-01T20:52:39.898Z,48.75
2023-01-01T20:55:08.675Z,46.95
2023-01-01T20:57:36.342Z,46.72
2023-01-01T21:00:04.844Z,48.50
2023-01-01T21:02:32.942Z,47.70
2023-01-01T21:05:00.602Z,45.40
2023-01-01T21:07:28.420Z,45.05
2023-01-01T21:09:56.384Z,46.22
2023-01-01T21:12:24.420Z,45.53
2023-01-01T21:14:55.959Z,46.17
2023-01-01T21:17:25.707Z,44.15
2023-01-01T21:19:57.415Z,43.92
2023-01-01T21:22:25.766Z,44.70
2023-01-01T21:24:55.493Z,44.38
2023-01-01T21:27:32.859Z,44.80
2023-01-01T21:30:00.849Z,43.40
2023-01-01T21:32:39.694Z,45.35
2023-01-01T21:35:29.723Z,45.25
2023-01-01T21:38:00.991Z,51.13
2023-01-01T21:40:35.850Z,55.78
2023-01-01T21:43:05.735Z,67.82
2023-01-01T21:45:40.937Z,75.90
2023-01-01T21:48:17.447Z,60.15
2023-01-01T21:50:49.755Z,65.75
2023-01-01T21:53:19.601Z,74.75
2023-01-01T21:55:53.528Z,89.95
2023-01-01T21:58:45.476Z,70.45
2023-01-01T22:01:27.277Z,70.68
2023-01-01T22:04:00.571Z,59.33
2023-01-01T22:06:37.654Z,78.82
2023-01-01T22:09:35.271Z,59.05
2023-01-01T22:12:17.454Z,68.22
2023-01-01T22:14:50.773Z,63.00
2023-01-01T22:17:37.068Z,66.82
2023-01-01T22:20:19.785Z,68.65
2023-01-01T22:22:46.943Z,76.82
2023-01-01T22:25:32.177Z,72.25
2023-01-01T22:28:14.534Z,66.80
2023-01-01T22:30:43.832Z,62.95
2023-01-01T22:33:15.796Z,76.65
2023-01-01T22:35:43.100Z,94.65
2023-01-01T22:38:15.786Z,76.30
2023-01-01T22:40:43.206Z,90.72
2023-01-01T22:43:13.449Z,78.45
2023-01-01T22:45:46.885Z,68.75
2023-01-01T22:48:37.007Z,81.28
2023-01-01T22:51:13.423Z,88.88
2023-01-01T22:53:40.651Z,71.10
2023-01-01T22:56:08.057Z,65.95
2023-01-01T22:58:35.217Z,61.30
2023-01-01T23:01:02.426Z,51.75
2023-01-01T23:03:29.656Z,56.05
2023-01-01T23:05:57.509Z,53.53
2023-01-01T23:08:26.002Z,53.30
2023-01-01T23:10:54.564Z,61.00
2023-01-01T23:13:40.938Z,76.25
2023-01-01T23:16:08.278Z,61.97
2023-01-01T23:18:37.183Z,63.80
2023-01-01T23:21:12.014Z,68.63
2023-01-01T23:23:40.700Z,49.88
2023-01-01T23:26:09.069Z,61.88
2023-01-01T23:28:37.301Z,56.95
2023-01-01T23:31:07.486Z,53.70
2023-01-01T23:33:35.661Z,58.47
2023-01-01T23:36:03.509Z,58.92
2023-01-01T23:38:31.842Z,55.78
2023-01-01T23:40:59.110Z,59.63
2023-01-01T23:43:26.264Z,48.70
2023-01-01T23:45:54.463Z,51.20
2023-01-01T23:48:22.310Z,53.58
2023-01-01T23:50:50.076Z,58.55
2023-01-01T23:53:17.197Z,56.47
2023-01-01T23:55:44.602Z,60.33
2023-01-01T23:58:11.752Z,57.33
